Time;durP1;ratioP1;P1;durP2;ratioP2;P2;SDS_P1;SDS_P2;PMS_P1;PMS_P2;Temp;Humidity;BMP_temperature;BMP_pressure;BME280_temperature;BME280_humidity;BME280_pressure;Samples;Min_cycle;Max_cycle;Signal;HPM_P1;HPM_P2
2022/12/06 00:00:06;;;;;;;12.57;4.10;;;;;;;;;;1705868;82;21855;-53
2022/12/06 00:02:34;;;;;;;10.40;3.30;;;;;;;;;;1705758;82;21096;-52
2022/12/06 00:05:01;;;;;;;8.37;2.63;;;;;;;;;;1709497;82;21067;-52
2022/12/06 00:07:29;;;;;;;12.53;3.80;;;;;;;;;;1726848;82;21139;-53
2022/12/06 00:09:55;;;;;;;9.90;3.67;;;;;;;;;;1695759;82;21087;-52
2022/12/06 00:12:22;;;;;;;7.70;3.23;;;;;;;;;;1694635;82;23239;-52
2022/12/06 00:14:49;;;;;;;10.30;2.97;;;;;;;;;;1692526;83;21556;-52
2022/12/06 00:17:15;;;;;;;10.13;3.07;;;;;;;;;;1704786;83;21056;-51
2022/12/06 00:19:41;;;;;;;11.00;3.40;;;;;;;;;;1701639;83;21593;-52
2022/12/06 00:22:07;;;;;;;8.30;3.20;;;;;;;;;;1704750;83;21044;-52
2022/12/06 00:24:34;;;;;;;9.47;2.73;;;;;;;;;;1704424;83;21834;-52
2022/12/06 00:27:01;;;;;;;10.83;2.67;;;;;;;;;;1695895;82;21087;-53
2022/12/06 00:29:27;;;;;;;9.47;2.63;;;;;;;;;;1693037;82;21075;-53
2022/12/06 00:31:54;;;;;;;7.30;2.17;;;;;;;;;;1697323;83;21094;-52
2022/12/06 00:34:20;;;;;;;9.53;2.93;;;;;;;;;;1696946;82;21064;-53
2022/12/06 00:36:47;;;;;;;9.00;2.77;;;;;;;;;;1709069;82;23062;-54
2022/12/06 00:39:14;;;;;;;11.80;2.77;;;;;;;;;;1705610;83;21044;-54
2022/12/06 00:41:41;;;;;;;7.13;2.97;;;;;;;;;;1709464;82;21378;-54
2022/12/06 00:44:07;;;;;;;7.27;2.53;;;;;;;;;;1725982;80;21091;-53
2022/12/06 00:46:34;;;;;;;7.43;2.27;;;;;;;;;;1706632;82;21452;-52
2022/12/06 00:49:00;;;;;;;15.67;3.50;;;;;;;;;;1729876;82;21927;-53
2022/12/06 00:51:28;;;;;;;9.60;2.83;;;;;;;;;;1699374;82;21215;-52
2022/12/06 00:53:54;;;;;;;5.30;1.97;;;;;;;;;;1697067;83;20973;-52
2022/12/06 00:56:20;;;;;;;9.33;2.00;;;;;;;;;;1696670;83;21052;-53
2022/12/06 00:58:46;;;;;;;5.97;1.90;;;;;;;;;;1696239;83;21111;-52
2022/12/06 01:01:19;;;;;;;14.20;2.47;;;;;;;;;;1696467;83;22931;-52
2022/12/06 01:03:45;;;;;;;7.53;2.53;;;;;;;;;;1695388;83;21374;-52
2022/12/06 01:06:13;;;;;;;5.77;1.93;;;;;;;;;;1683115;83;21105;-52
2022/12/06 01:08:40;;;;;;;5.93;2.13;;;;;;;;;;1753851;80;21049;-53
2022/12/06 01:11:06;;;;;;;7.40;2.37;;;;;;;;;;1757899;80;21038;-52
2022/12/06 01:13:33;;;;;;;4.93;1.33;;;;;;;;;;1763598;80;21769;-53
2022/12/06 01:16:08;;;;;;;7.63;2.07;;;;;;;;;;1752019;80;21025;-52
2022/12/06 01:18:34;;;;;;;6.27;2.53;;;;;;;;;;1758007;80;21024;-52
2022/12/06 01:21:04;;;;;;;7.63;2.40;;;;;;;;;;1750959;80;21559;-53
2022/12/06 01:23:32;;;;;;;7.93;2.17;;;;;;;;;;1754788;80;21116;-52
2022/12/06 01:25:59;;;;;;;7.67;1.97;;;;;;;;;;1755158;80;21819;-52
2022/12/06 01:28:25;;;;;;;10.43;2.97;;;;;;;;;;1754439;80;21062;-53
2022/12/06 01:30:51;;;;;;;14.00;3.70;;;;;;;;;;1751103;80;21077;-52
2022/12/06 01:33:17;;;;;;;13.10;3.20;;;;;;;;;;1754927;80;21439;-52
2022/12/06 01:35:43;;;;;;;8.20;2.70;;;;;;;;;;1753979;79;21058;-52
2022/12/06 01:38:11;;;;;;;6.10;2.37;;;;;;;;;;1759008;80;22991;-52
2022/12/06 01:40:42;;;;;;;5.83;2.47;;;;;;;;;;1754043;80;21487;-52
2022/12/06 01:43:35;;;;;;;9.63;2.27;;;;;;;;;;1757481;80;21560;-52
2022/12/06 01:46:20;;;;;;;11.97;2.57;;;;;;;;;;1755410;80;21065;-52
2022/12/06 01:48:48;;;;;;;18.07;5.67;;;;;;;;;;1759139;80;26533;-52
2022/12/06 01:51:14;;;;;;;11.07;3.87;;;;;;;;;;1753994;80;21834;-52
2022/12/06 01:53:41;;;;;;;9.17;3.10;;;;;;;;;;1751322;80;21413;-53
2022/12/06 01:56:07;;;;;;;13.27;3.10;;;;;;;;;;1750267;80;21058;-52
2022/12/06 01:58:37;;;;;;;13.27;2.90;;;;;;;;;;1752267;80;21045;-53
2022/12/06 02:01:03;;;;;;;12.77;2.60;;;;;;;;;;1753640;80;21390;-53
2022/12/06 02:03:31;;;;;;;11.23;1.93;;;;;;;;;;1750336;80;21826;-53
2022/12/06 02:05:58;;;;;;;11.53;3.17;;;;;;;;;;1753998;80;21229;-52
2022/12/06 02:08:24;;;;;;;8.23;3.00;;;;;;;;;;1717021;81;21509;-52
2022/12/06 02:10:51;;;;;;;13.23;3.57;;;;;;;;;;1742648;81;20978;-52
2022/12/06 02:13:18;;;;;;;14.83;3.70;;;;;;;;;;1742501;81;21420;-52
2022/12/06 02:16:05;;;;;;;11.93;4.03;;;;;;;;;;1743569;81;21787;-53
2022/12/06 02:18:52;;;;;;;15.77;4.67;;;;;;;;;;1741442;81;20980;-53
2022/12/06 02:21:22;;;;;;;14.27;4.77;;;;;;;;;;1749429;81;20963;-53
2022/12/06 02:24:10;;;;;;;20.63;5.07;;;;;;;;;;1743657;81;21008;-53
2022/12/06 02:26:50;;;;;;;22.17;6.23;;;;;;;;;;1742421;81;21023;-53
2022/12/06 02:29:38;;;;;;;22.50;5.03;;;;;;;;;;1742950;81;22484;-52
2022/12/06 02:32:11;;;;;;;15.07;3.07;;;;;;;;;;1743973;81;20980;-52
2022/12/06 02:34:41;;;;;;;11.43;3.20;;;;;;;;;;1741857;81;20986;-53
2022/12/06 02:37:31;;;;;;;5.33;1.87;;;;;;;;;;1742013;81;20975;-52
2022/12/06 02:40:04;;;;;;;7.23;1.80;;;;;;;;;;1745653;81;21536;-52
2022/12/06 02:42:43;;;;;;;9.93;1.60;;;;;;;;;;1744766;81;21810;-53
2022/12/06 02:45:18;;;;;;;5.40;1.57;;;;;;;;;;1741005;81;21310;-53
2022/12/06 02:47:44;;;;;;;5.10;1.50;;;;;;;;;;1743525;81;21089;-54
2022/12/06 02:50:14;;;;;;;3.10;1.20;;;;;;;;;;1741511;81;21077;-54
2022/12/06 02:52:41;;;;;;;6.63;1.40;;;;;;;;;;1738197;81;21108;-53
2022/12/06 02:55:08;;;;;;;5.27;1.50;;;;;;;;;;1737769;81;22460;-53
2022/12/06 02:57:43;;;;;;;5.23;1.10;;;;;;;;;;1745924;81;20963;-54
2022/12/06 03:00:41;;;;;;;4.87;1.40;;;;;;;;;;1748991;81;21078;-53
2022/12/06 03:03:40;;;;;;;3.77;1.20;;;;;;;;;;1741552;81;21094;-52
2022/12/06 03:07:47;;;;;;;6.53;1.93;;;;;;;;;;1791700;78;24600;-52
2022/12/06 03:10:20;;;;;;;7.33;1.77;;;;;;;;;;1742837;80;21044;-53
2022/12/06 03:13:02;;;;;;;6.60;1.60;;;;;;;;;;1732829;80;21847;-53
2022/12/06 03:15:35;;;;;;;5.50;1.80;;;;;;;;;;1740742;80;21069;-52
2022/12/06 03:18:21;;;;;;;5.83;1.40;;;;;;;;;;1744181;80;21056;-54
2022/12/06 03:20:53;;;;;;;7.00;1.50;;;;;;;;;;1731915;80;21391;-53
2022/12/06 03:23:22;;;;;;;3.83;1.13;;;;;;;;;;1739298;80;21163;-53
2022/12/06 03:25:48;;;;;;;5.87;1.30;;;;;;;;;;1739583;80;21786;-53
2022/12/06 03:28:14;;;;;;;4.27;1.27;;;;;;;;;;1742408;80;21060;-53
2022/12/06 03:30:43;;;;;;;6.33;1.40;;;;;;;;;;1736455;81;21072;-53
2022/12/06 03:33:10;;;;;;;5.73;1.30;;;;;;;;;;1743026;80;21053;-53
2022/12/06 03:35:37;;;;;;;9.93;1.10;;;;;;;;;;1737864;80;22301;-53
2022/12/06 03:38:07;;;;;;;6.30;1.50;;;;;;;;;;1739173;80;21832;-53
2022/12/06 03:40:34;;;;;;;5.47;1.30;;;;;;;;;;1739179;81;21444;-53
2022/12/06 03:43:01;;;;;;;5.90;1.03;;;;;;;;;;1730855;80;21621;-53
2022/12/06 03:45:34;;;;;;;6.73;1.40;;;;;;;;;;1737709;80;21075;-53
2022/12/06 03:48:15;;;;;;;6.37;1.20;;;;;;;;;;1740131;80;21210;-53
2022/12/06 03:50:44;;;;;;;5.67;1.63;;;;;;;;;;1699510;81;21904;-52
2022/12/06 03:53:10;;;;;;;8.03;1.60;;;;;;;;;;1741900;80;21077;-52
2022/12/06 03:55:36;;;;;;;2.37;1.20;;;;;;;;;;1746419;80;21053;-52
2022/12/06 03:58:03;;;;;;;12.33;1.87;;;;;;;;;;1742342;80;21647;-52
2022/12/06 04:00:29;;;;;;;6.47;1.30;;;;;;;;;;1742973;80;21020;-52
2022/12/06 04:02:55;;;;;;;4.57;1.57;;;;;;;;;;1736588;80;21913;-52
2022/12/06 04:05:21;;;;;;;5.63;1.40;;;;;;;;;;1734330;80;21525;-53
2022/12/06 04:07:48;;;;;;;7.03;1.70;;;;;;;;;;1725509;80;21026;-53
2022/12/06 04:10:15;;;;;;;6.77;1.10;;;;;;;;;;1728181;80;21120;-52
2022/12/06 04:13:01;;;;;;;8.07;2.10;;;;;;;;;;1732217;81;21106;-53
2022/12/06 04:15:33;;;;;;;9.70;1.42;;;;;;;;;;1723909;81;21817;-52
2022/12/06 04:18:12;;;;;;;3.33;0.90;;;;;;;;;;1728624;80;21053;-52
2022/12/06 04:23:31;;;;;;;7.03;1.53;;;;;;;;;;1730387;81;21017;-52
2022/12/06 04:25:57;;;;;;;6.03;1.40;;;;;;;;;;1728553;81;21527;-52
2022/12/06 04:39:22;;;;;;;5.60;1.53;;;;;;;;;;1726724;80;21041;-54
2022/12/06 04:44:33;;;;;;;5.42;1.62;;;;;;;;;;1730499;81;21045;-53
2022/12/06 04:47:00;;;;;;;4.17;1.43;;;;;;;;;;1721531;80;21133;-53
2022/12/06 04:49:26;;;;;;;8.90;1.37;;;;;;;;;;1730207;80;21058;-53
2022/12/06 04:51:53;;;;;;;7.33;1.20;;;;;;;;;;1729385;80;21108;-54
2022/12/06 04:54:20;;;;;;;6.57;1.27;;;;;;;;;;1725507;81;23479;-53
2022/12/06 04:56:46;;;;;;;10.20;1.47;;;;;;;;;;1730476;80;21462;-53
2022/12/06 04:59:13;;;;;;;7.57;1.30;;;;;;;;;;1725896;81;20998;-54
2022/12/06 05:01:39;;;;;;;10.00;1.93;;;;;;;;;;1730628;81;21014;-53
2022/12/06 05:04:05;;;;;;;6.23;1.70;;;;;;;;;;1732784;80;21437;-53
2022/12/06 05:06:32;;;;;;;4.30;1.20;;;;;;;;;;1727402;80;21828;-53
2022/12/06 05:08:58;;;;;;;6.57;1.90;;;;;;;;;;1729827;80;20998;-54
2022/12/06 05:11:24;;;;;;;4.27;1.60;;;;;;;;;;1725663;81;21622;-53
2022/12/06 05:13:50;;;;;;;7.03;1.53;;;;;;;;;;1731046;80;21014;-53
2022/12/06 05:16:16;;;;;;;6.47;2.87;;;;;;;;;;1735117;80;20986;-54
2022/12/06 05:18:43;;;;;;;4.67;1.80;;;;;;;;;;1732525;81;21864;-53
2022/12/06 05:21:14;;;;;;;7.13;2.10;;;;;;;;;;1726639;81;20959;-54
2022/12/06 05:23:40;;;;;;;7.47;2.20;;;;;;;;;;1734043;80;21002;-54
2022/12/06 05:26:09;;;;;;;12.40;1.80;;;;;;;;;;1725367;81;21616;-54
2022/12/06 05:28:35;;;;;;;9.40;1.80;;;;;;;;;;1734073;81;21009;-54
2022/12/06 05:31:01;;;;;;;5.33;1.50;;;;;;;;;;1734378;80;22555;-54
2022/12/06 05:33:29;;;;;;;4.77;1.20;;;;;;;;;;1719597;80;21065;-53
2022/12/06 05:35:55;;;;;;;3.70;1.43;;;;;;;;;;1734344;81;21085;-53
2022/12/06 05:38:22;;;;;;;4.47;1.50;;;;;;;;;;1732278;80;21061;-53
2022/12/06 05:40:48;;;;;;;6.00;2.00;;;;;;;;;;1726698;81;21145;-54
2022/12/06 05:43:14;;;;;;;12.33;1.33;;;;;;;;;;1727980;80;21775;-53
2022/12/06 05:45:41;;;;;;;4.60;1.10;;;;;;;;;;1732283;80;21046;-54
2022/12/06 05:48:08;;;;;;;5.73;1.90;;;;;;;;;;1730241;80;21001;-54
2022/12/06 05:50:34;;;;;;;5.27;1.40;;;;;;;;;;1723846;80;21364;-54
2022/12/06 05:53:01;;;;;;;6.23;1.63;;;;;;;;;;1731314;80;21068;-53
2022/12/06 05:55:27;;;;;;;5.57;1.33;;;;;;;;;;1735317;80;21866;-53
2022/12/06 05:57:53;;;;;;;4.37;1.10;;;;;;;;;;1732460;81;21197;-53
2022/12/06 06:00:20;;;;;;;8.60;2.27;;;;;;;;;;1727043;80;21057;-54
2022/12/06 06:02:46;;;;;;;2.70;1.40;;;;;;;;;;1721428;80;21049;-55
2022/12/06 06:05:13;;;;;;;7.60;2.00;;;;;;;;;;1726740;81;21711;-55
2022/12/06 06:07:39;;;;;;;9.57;3.20;;;;;;;;;;1735357;81;21830;-54
2022/12/06 06:10:06;;;;;;;16.53;2.60;;;;;;;;;;1726520;80;21918;-54
2022/12/06 06:12:32;;;;;;;9.87;2.73;;;;;;;;;;1732304;80;20995;-54
2022/12/06 06:14:58;;;;;;;7.80;2.80;;;;;;;;;;1733686;81;20979;-53
2022/12/06 06:17:25;;;;;;;9.10;2.23;;;;;;;;;;1730357;81;22580;-54
2022/12/06 06:19:51;;;;;;;6.83;2.07;;;;;;;;;;1723296;80;21775;-54
2022/12/06 06:22:18;;;;;;;5.30;1.80;;;;;;;;;;1720905;81;21079;-54
2022/12/06 06:24:44;;;;;;;5.80;1.80;;;;;;;;;;1727233;81;21534;-53
2022/12/06 06:27:11;;;;;;;5.17;1.27;;;;;;;;;;1729724;80;21147;-53
2022/12/06 06:29:37;;;;;;;11.17;2.00;;;;;;;;;;1732098;80;21038;-54
2022/12/06 06:32:03;;;;;;;6.57;1.60;;;;;;;;;;1732473;80;21811;-53
2022/12/06 06:34:29;;;;;;;5.97;1.83;;;;;;;;;;1732959;80;21022;-53
2022/12/06 06:36:55;;;;;;;5.97;1.70;;;;;;;;;;1732965;80;21378;-53
2022/12/06 06:39:22;;;;;;;5.67;1.43;;;;;;;;;;1725353;80;22073;-54
2022/12/06 06:41:48;;;;;;;6.43;2.23;;;;;;;;;;1725228;81;21486;-54
2022/12/06 06:44:15;;;;;;;9.70;4.27;;;;;;;;;;1730535;81;21846;-54
2022/12/06 06:46:41;;;;;;;8.43;2.20;;;;;;;;;;1725399;80;21471;-53
2022/12/06 06:49:07;;;;;;;4.47;1.87;;;;;;;;;;1729208;80;21115;-54
2022/12/06 06:51:33;;;;;;;4.33;1.37;;;;;;;;;;1726099;81;21536;-54
2022/12/06 06:53:59;;;;;;;6.10;1.67;;;;;;;;;;1728962;80;21109;-53
2022/12/06 06:56:25;;;;;;;14.30;1.50;;;;;;;;;;1732928;80;22832;-53
2022/12/06 06:58:52;;;;;;;6.00;1.60;;;;;;;;;;1744529;80;21038;-54
2022/12/06 07:01:19;;;;;;;10.03;4.33;;;;;;;;;;1730676;81;20983;-54
2022/12/06 07:03:46;;;;;;;6.27;1.23;;;;;;;;;;1732067;80;21070;-54
2022/12/06 07:07:21;;;;;;;8.27;1.73;;;;;;;;;;1774369;78;26503;-53
2022/12/06 07:09:48;;;;;;;4.93;1.40;;;;;;;;;;1734339;80;21472;-53
2022/12/06 07:12:14;;;;;;;4.93;1.43;;;;;;;;;;1725362;82;21768;-53
2022/12/06 07:14:40;;;;;;;5.43;1.37;;;;;;;;;;1729838;82;21079;-52
2022/12/06 07:17:06;;;;;;;3.73;1.37;;;;;;;;;;1728093;82;21041;-53
2022/12/06 07:19:33;;;;;;;3.67;1.20;;;;;;;;;;1720214;82;21065;-53
2022/12/06 07:21:59;;;;;;;9.90;1.97;;;;;;;;;;1726244;82;22371;-54
2022/12/06 07:24:25;;;;;;;5.27;1.30;;;;;;;;;;1728207;82;24209;-53
2022/12/06 07:26:51;;;;;;;4.20;1.53;;;;;;;;;;1703341;82;21021;-53
2022/12/06 07:29:17;;;;;;;5.53;1.70;;;;;;;;;;1700030;83;21707;-52
2022/12/06 07:31:44;;;;;;;4.40;1.00;;;;;;;;;;1676739;83;21031;-53
2022/12/06 07:34:10;;;;;;;8.50;1.40;;;;;;;;;;1699116;83;20994;-52
2022/12/06 07:36:36;;;;;;;4.53;1.70;;;;;;;;;;1685821;84;21794;-53
2022/12/06 07:39:02;;;;;;;5.43;1.23;;;;;;;;;;1691378;83;21402;-53
2022/12/06 07:47:17;;;;;;;6.53;1.05;;;;;;;;;;1680176;84;21250;-53
2022/12/06 07:49:43;;;;;;;6.17;1.70;;;;;;;;;;1672650;84;21823;-52
2022/12/06 07:52:10;;;;;;;4.43;1.10;;;;;;;;;;1676079;84;21225;-53
2022/12/06 07:54:36;;;;;;;4.47;1.37;;;;;;;;;;1672596;84;20973;-53
2022/12/06 07:57:02;;;;;;;5.97;1.20;;;;;;;;;;1670824;85;22281;-53
2022/12/06 07:59:28;;;;;;;4.43;1.30;;;;;;;;;;1696184;83;21104;-53
2022/12/06 08:01:55;;;;;;;4.00;1.23;;;;;;;;;;1679908;84;21838;-53
2022/12/06 08:04:21;;;;;;;3.67;0.90;;;;;;;;;;1701453;83;21120;-53
2022/12/06 08:06:47;;;;;;;6.27;1.40;;;;;;;;;;1670677;84;21058;-53
2022/12/06 08:09:13;;;;;;;4.83;1.07;;;;;;;;;;1721462;82;21487;-52
2022/12/06 08:11:39;;;;;;;2.03;1.00;;;;;;;;;;1718609;82;21089;-53
2022/12/06 08:14:06;;;;;;;3.63;1.10;;;;;;;;;;1716915;82;22289;-53
2022/12/06 08:16:32;;;;;;;5.33;1.53;;;;;;;;;;1722236;82;21110;-53
2022/12/06 08:18:58;;;;;;;6.50;1.37;;;;;;;;;;1714897;82;21446;-53
2022/12/06 08:21:25;;;;;;;3.40;1.20;;;;;;;;;;1723198;82;22468;-53
2022/12/06 08:23:53;;;;;;;6.37;1.40;;;;;;;;;;1720078;82;21045;-53
2022/12/06 08:26:19;;;;;;;3.87;1.00;;;;;;;;;;1686447;83;21932;-54
2022/12/06 08:28:46;;;;;;;3.00;1.30;;;;;;;;;;1720705;82;21146;-53
2022/12/06 08:31:15;;;;;;;2.27;1.00;;;;;;;;;;1716713;82;21026;-52
2022/12/06 08:33:41;;;;;;;3.10;1.00;;;;;;;;;;1722817;82;21058;-53
2022/12/06 08:36:09;;;;;;;3.07;1.07;;;;;;;;;;1712929;82;21434;-54
2022/12/06 08:38:38;;;;;;;1.50;0.70;;;;;;;;;;1720517;82;21796;-53
2022/12/06 08:41:05;;;;;;;3.07;0.90;;;;;;;;;;1724436;82;21010;-53
2022/12/06 08:43:31;;;;;;;2.40;0.70;;;;;;;;;;1724500;82;21768;-54
2022/12/06 08:45:57;;;;;;;2.70;0.87;;;;;;;;;;1722674;82;21057;-54
2022/12/06 08:48:23;;;;;;;3.20;1.00;;;;;;;;;;1715698;82;21606;-54
2022/12/06 08:50:49;;;;;;;3.03;0.80;;;;;;;;;;1713753;82;22425;-52
2022/12/06 08:53:15;;;;;;;3.43;0.90;;;;;;;;;;1718700;82;21605;-53
2022/12/06 08:55:41;;;;;;;2.47;0.90;;;;;;;;;;1716910;82;21102;-53
2022/12/06 08:58:08;;;;;;;3.40;0.80;;;;;;;;;;1716653;82;21065;-53
2022/12/06 09:00:34;;;;;;;2.37;1.07;;;;;;;;;;1713535;82;21077;-53
2022/12/06 09:03:00;;;;;;;3.93;0.80;;;;;;;;;;1722128;82;21849;-53
2022/12/06 09:05:27;;;;;;;1.67;0.70;;;;;;;;;;1716445;82;21062;-54
2022/12/06 09:07:53;;;;;;;2.83;1.20;;;;;;;;;;1724390;82;22205;-53
2022/12/06 09:10:19;;;;;;;1.60;0.90;;;;;;;;;;1724773;82;21056;-54
2022/12/06 09:12:45;;;;;;;1.77;0.90;;;;;;;;;;1732023;81;21014;-53
2022/12/06 09:15:11;;;;;;;10.37;3.60;;;;;;;;;;1729097;82;21828;-53
2022/12/06 09:17:37;;;;;;;13.07;3.43;;;;;;;;;;1723969;82;21037;-53
2022/12/06 09:20:05;;;;;;;3.87;1.60;;;;;;;;;;1728808;82;21045;-53
2022/12/06 09:22:31;;;;;;;3.93;1.23;;;;;;;;;;1724332;81;21523;-53
2022/12/06 09:24:57;;;;;;;4.37;1.10;;;;;;;;;;1725766;82;21025;-54
2022/12/06 09:27:23;;;;;;;4.30;1.10;;;;;;;;;;1725067;82;21886;-53
2022/12/06 09:29:49;;;;;;;1.73;0.87;;;;;;;;;;1731881;81;21551;-53
2022/12/06 09:32:16;;;;;;;1.47;0.70;;;;;;;;;;1729457;80;21582;-53
2022/12/06 09:34:42;;;;;;;1.30;0.80;;;;;;;;;;1733413;80;21092;-53
2022/12/06 09:37:10;;;;;;;1.23;0.70;;;;;;;;;;1731080;80;21059;-53
2022/12/06 09:39:42;;;;;;;1.70;0.90;;;;;;;;;;1727264;80;21834;-52
2022/12/06 09:42:26;;;;;;;1.20;0.77;;;;;;;;;;1728054;80;22553;-52
2022/12/06 09:45:14;;;;;;;1.20;0.50;;;;;;;;;;1727480;80;21064;-53
2022/12/06 09:47:54;;;;;;;1.00;0.40;;;;;;;;;;1737528;80;21576;-52
2022/12/06 09:50:40;;;;;;;1.87;0.80;;;;;;;;;;1733498;80;21025;-54
2022/12/06 09:53:28;;;;;;;1.30;0.60;;;;;;;;;;1731611;80;22171;-54
2022/12/06 09:56:06;;;;;;;2.60;0.83;;;;;;;;;;1725339;80;21162;-53
2022/12/06 09:58:44;;;;;;;1.47;0.70;;;;;;;;;;1728749;80;21085;-53
2022/12/06 10:01:36;;;;;;;4.63;0.90;;;;;;;;;;1735069;80;21033;-53
2022/12/06 10:04:12;;;;;;;1.17;0.70;;;;;;;;;;1729593;80;21115;-54
2022/12/06 10:06:51;;;;;;;1.17;0.70;;;;;;;;;;1726728;80;21821;-52
2022/12/06 10:09:21;;;;;;;1.83;0.70;;;;;;;;;;1733683;80;20970;-53
2022/12/06 10:15:18;;;;;;;1.70;0.77;;;;;;;;;;1787952;78;27836;-52
2022/12/06 10:18:03;;;;;;;4.13;0.80;;;;;;;;;;1772041;79;21079;-53
2022/12/06 10:20:57;;;;;;;4.72;1.37;;;;;;;;;;1772931;79;22648;-55
2022/12/06 10:23:39;;;;;;;19.93;4.73;;;;;;;;;;1774447;79;21446;-54
2022/12/06 10:26:14;;;;;;;6.60;1.77;;;;;;;;;;1777191;79;21076;-54
2022/12/06 10:28:53;;;;;;;8.90;2.37;;;;;;;;;;1775969;78;21466;-55
2022/12/06 10:31:41;;;;;;;9.53;2.57;;;;;;;;;;1775963;79;20986;-54
2022/12/06 10:34:27;;;;;;;5.37;1.33;;;;;;;;;;1769859;78;22534;-54
2022/12/06 10:37:17;;;;;;;5.33;1.43;;;;;;;;;;1693081;83;21629;-53
2022/12/06 10:39:50;;;;;;;6.10;1.00;;;;;;;;;;1758831;78;22074;-53
2022/12/06 10:42:29;;;;;;;4.20;1.20;;;;;;;;;;1769793;79;21104;-53
2022/12/06 10:45:01;;;;;;;4.93;0.90;;;;;;;;;;1774550;78;21046;-53
2022/12/06 10:47:33;;;;;;;8.30;1.97;;;;;;;;;;1767447;78;21889;-54
2022/12/06 10:50:10;;;;;;;3.80;1.17;;;;;;;;;;1772544;78;21143;-53
2022/12/06 10:52:41;;;;;;;2.70;1.30;;;;;;;;;;1767103;78;21462;-56
2022/12/06 10:55:23;;;;;;;6.27;1.90;;;;;;;;;;1773878;78;21080;-52
2022/12/06 10:57:56;;;;;;;8.00;1.63;;;;;;;;;;1778195;79;21048;-52
2022/12/06 11:00:24;;;;;;;8.13;1.80;;;;;;;;;;1781183;79;23522;-53
2022/12/06 11:03:13;;;;;;;9.90;2.47;;;;;;;;;;1778757;78;21353;-53
2022/12/06 11:05:49;;;;;;;9.30;1.90;;;;;;;;;;1774569;79;21029;-54
2022/12/06 11:08:21;;;;;;;12.40;3.20;;;;;;;;;;1773330;79;21061;-54
2022/12/06 11:10:48;;;;;;;5.57;2.10;;;;;;;;;;1744824;80;21116;-54
2022/12/06 11:13:46;;;;;;;10.27;3.87;;;;;;;;;;1738585;80;21823;-54
2022/12/06 11:16:25;;;;;;;3.40;1.40;;;;;;;;;;1669094;83;21066;-54
2022/12/06 11:18:53;;;;;;;7.10;1.80;;;;;;;;;;1737508;80;21483;-54
2022/12/06 11:21:41;;;;;;;10.27;2.73;;;;;;;;;;1715175;80;21432;-54
2022/12/06 11:24:11;;;;;;;12.57;2.87;;;;;;;;;;1733386;80;21719;-53
2022/12/06 11:26:41;;;;;;;3.37;1.10;;;;;;;;;;1736642;80;21944;-52
2022/12/06 11:29:11;;;;;;;7.40;1.87;;;;;;;;;;1738658;80;21112;-53
2022/12/06 11:31:49;;;;;;;5.63;1.23;;;;;;;;;;1737908;80;21080;-53
2022/12/06 11:34:19;;;;;;;3.90;1.80;;;;;;;;;;1738105;80;21063;-53
2022/12/06 11:36:46;;;;;;;18.53;5.13;;;;;;;;;;1736322;80;21099;-53
2022/12/06 11:39:13;;;;;;;6.87;2.00;;;;;;;;;;1732246;80;21811;-53
2022/12/06 11:41:39;;;;;;;14.43;3.03;;;;;;;;;;1736570;80;21054;-53
2022/12/06 11:44:05;;;;;;;7.03;1.73;;;;;;;;;;1733084;80;21363;-53
2022/12/06 11:46:32;;;;;;;28.63;5.97;;;;;;;;;;1738753;80;21594;-54
2022/12/06 11:49:04;;;;;;;15.33;4.93;;;;;;;;;;1742278;80;21049;-53
2022/12/06 11:51:30;;;;;;;10.30;4.77;;;;;;;;;;1746503;80;22558;-53
2022/12/06 11:54:03;;;;;;;5.33;1.10;;;;;;;;;;1735521;80;21132;-53
2022/12/06 11:56:36;;;;;;;5.13;1.40;;;;;;;;;;1701473;82;21158;-54
2022/12/06 11:59:24;;;;;;;1.70;0.90;;;;;;;;;;1670932;83;22555;-54
2022/12/06 12:01:52;;;;;;;3.67;1.20;;;;;;;;;;1743540;80;20960;-53
2022/12/06 12:04:42;;;;;;;2.40;0.93;;;;;;;;;;1740152;80;21751;-53
2022/12/06 12:07:12;;;;;;;2.33;0.97;;;;;;;;;;1743991;80;21891;-54
2022/12/06 12:09:53;;;;;;;2.67;1.10;;;;;;;;;;1743546;80;21001;-53
2022/12/06 12:12:22;;;;;;;1.93;1.00;;;;;;;;;;1741042;80;20966;-52
2022/12/06 12:14:54;;;;;;;5.43;0.77;;;;;;;;;;1739352;80;21006;-54
2022/12/06 12:17:22;;;;;;;1.57;0.77;;;;;;;;;;1737050;80;21780;-53
2022/12/06 12:19:52;;;;;;;4.20;0.90;;;;;;;;;;1734030;80;21567;-53
2022/12/06 12:22:35;;;;;;;2.63;0.80;;;;;;;;;;1734350;80;21566;-54
2022/12/06 12:25:03;;;;;;;4.40;0.80;;;;;;;;;;1739274;80;21905;-53
2022/12/06 12:27:40;;;;;;;1.70;0.70;;;;;;;;;;1737428;80;21491;-53
2022/12/06 12:30:18;;;;;;;2.50;0.70;;;;;;;;;;1737948;80;21844;-54
2022/12/06 12:32:45;;;;;;;3.80;0.80;;;;;;;;;;1736698;80;21052;-53
2022/12/06 12:35:21;;;;;;;1.63;0.70;;;;;;;;;;1734233;80;21639;-52
2022/12/06 12:37:52;;;;;;;3.67;0.70;;;;;;;;;;1733607;80;21460;-54
2022/12/06 12:40:27;;;;;;;1.90;0.67;;;;;;;;;;1733413;80;20994;-54
2022/12/06 12:43:12;;;;;;;3.07;1.37;;;;;;;;;;1741066;80;22869;-53
2022/12/06 12:45:39;;;;;;;2.90;1.02;;;;;;;;;;1737104;80;21003;-53
2022/12/06 12:48:23;;;;;;;10.63;2.97;;;;;;;;;;1712924;80;20974;-53
2022/12/06 12:50:56;;;;;;;13.93;1.43;;;;;;;;;;1740495;80;20990;-53
2022/12/06 12:53:32;;;;;;;2.73;1.10;;;;;;;;;;1738082;80;21092;-53
2022/12/06 12:56:08;;;;;;;2.17;0.80;;;;;;;;;;1706959;80;21775;-55
2022/12/06 12:58:37;;;;;;;1.10;0.60;;;;;;;;;;1730559;80;21693;-54
2022/12/06 13:01:19;;;;;;;2.10;0.60;;;;;;;;;;1733707;80;21430;-54
2022/12/06 13:03:46;;;;;;;4.40;0.90;;;;;;;;;;1675446;80;21137;-54
2022/12/06 13:06:16;;;;;;;1.80;0.80;;;;;;;;;;1734211;80;21073;-54
2022/12/06 13:08:42;;;;;;;1.47;0.57;;;;;;;;;;1734474;80;22496;-53
2022/12/06 13:11:08;;;;;;;2.47;0.70;;;;;;;;;;1731517;80;21084;-54
2022/12/06 13:13:37;;;;;;;2.23;0.67;;;;;;;;;;1732299;80;21050;-54
2022/12/06 13:16:05;;;;;;;0.90;0.60;;;;;;;;;;1730355;80;21094;-54
2022/12/06 13:18:43;;;;;;;1.53;0.60;;;;;;;;;;1715527;80;21165;-54
2022/12/06 13:21:24;;;;;;;1.37;0.70;;;;;;;;;;1733594;80;21897;-54
2022/12/06 13:23:52;;;;;;;2.33;0.60;;;;;;;;;;1727532;80;21117;-53
2022/12/06 13:26:24;;;;;;;1.90;0.60;;;;;;;;;;1728781;80;21543;-54
2022/12/06 13:29:01;;;;;;;1.23;0.47;;;;;;;;;;1730640;80;21172;-53
2022/12/06 13:31:30;;;;;;;1.17;0.50;;;;;;;;;;1726509;81;21618;-55
2022/12/06 13:33:59;;;;;;;7.33;0.43;;;;;;;;;;1709607;81;21989;-52
2022/12/06 13:36:25;;;;;;;1.17;0.60;;;;;;;;;;1733308;80;21014;-53
2022/12/06 13:38:52;;;;;;;3.00;0.70;;;;;;;;;;1730240;80;21096;-54
2022/12/06 13:44:45;;;;;;;4.27;1.70;;;;;;;;;;1730564;80;21041;-54
2022/12/06 13:47:31;;;;;;;1.47;0.80;;;;;;;;;;1700592;82;23373;-54
2022/12/06 13:50:15;;;;;;;2.30;0.87;;;;;;;;;;1727947;80;21073;-52
2022/12/06 13:52:48;;;;;;;2.95;0.90;;;;;;;;;;1728002;81;21041;-54
2022/12/06 13:55:27;;;;;;;5.17;1.33;;;;;;;;;;1729634;80;21069;-54
2022/12/06 13:58:03;;;;;;;2.90;0.73;;;;;;;;;;1724483;80;21061;-54
2022/12/06 14:00:33;;;;;;;3.77;1.20;;;;;;;;;;1670677;83;23030;-53
2022/12/06 14:03:03;;;;;;;3.37;1.03;;;;;;;;;;1731343;80;21066;-54
2022/12/06 14:05:55;;;;;;;8.80;2.07;;;;;;;;;;1729390;80;21476;-53
2022/12/06 14:08:23;;;;;;;4.30;1.80;;;;;;;;;;1730667;80;21160;-53
2022/12/06 14:10:49;;;;;;;3.63;0.90;;;;;;;;;;1729924;80;21069;-53
2022/12/06 14:13:20;;;;;;;2.03;0.70;;;;;;;;;;1726670;80;23414;-53
2022/12/06 14:15:48;;;;;;;2.40;0.80;;;;;;;;;;1739672;80;21104;-54
2022/12/06 14:18:20;;;;;;;2.17;0.73;;;;;;;;;;1736306;80;22131;-54
2022/12/06 14:20:48;;;;;;;1.93;0.73;;;;;;;;;;1737288;80;21038;-54
2022/12/06 14:23:29;;;;;;;1.83;0.83;;;;;;;;;;1739526;80;21065;-54
2022/12/06 14:26:18;;;;;;;4.87;1.70;;;;;;;;;;1736969;80;21807;-54
2022/12/06 14:28:44;;;;;;;4.23;1.00;;;;;;;;;;1738732;80;21064;-54
2022/12/06 14:31:20;;;;;;;3.67;1.20;;;;;;;;;;1732514;81;21061;-53
2022/12/06 14:33:47;;;;;;;1.07;0.80;;;;;;;;;;1722271;80;22286;-54
2022/12/06 14:36:16;;;;;;;3.40;1.00;;;;;;;;;;1732847;80;21080;-54
2022/12/06 14:38:42;;;;;;;2.00;0.90;;;;;;;;;;1734161;80;22026;-53
2022/12/06 14:44:12;;;;;;;2.00;1.00;;;;;;;;;;1735729;81;21049;-54
2022/12/06 14:46:38;;;;;;;3.93;1.27;;;;;;;;;;1736443;80;21072;-55
2022/12/06 14:51:49;;;;;;;3.83;1.05;;;;;;;;;;1728145;80;21828;-54
2022/12/06 14:54:18;;;;;;;5.33;1.43;;;;;;;;;;1735749;80;21033;-54
2022/12/06 14:56:45;;;;;;;13.40;4.33;;;;;;;;;;1733705;81;21644;-54
2022/12/06 14:59:11;;;;;;;43.67;13.67;;;;;;;;;;1742793;80;21069;-54
2022/12/06 15:01:47;;;;;;;23.17;8.20;;;;;;;;;;1737832;81;21108;-54
2022/12/06 15:04:29;;;;;;;14.07;5.63;;;;;;;;;;1745785;80;21842;-54
2022/12/06 15:06:55;;;;;;;27.80;11.13;;;;;;;;;;1736205;81;21018;-55
2022/12/06 15:09:21;;;;;;;10.73;3.93;;;;;;;;;;1743539;81;20979;-55
2022/12/06 15:14:40;;;;;;;2.37;0.90;;;;;;;;;;1735020;80;21120;-54
2022/12/06 15:17:13;;;;;;;1.87;0.80;;;;;;;;;;1740056;80;21925;-54
2022/12/06 15:19:45;;;;;;;2.40;0.70;;;;;;;;;;1742645;80;21032;-53
2022/12/06 15:22:21;;;;;;;3.60;0.80;;;;;;;;;;1738472;80;21612;-54
2022/12/06 15:24:54;;;;;;;1.40;0.70;;;;;;;;;;1735791;80;20991;-54
2022/12/06 15:27:20;;;;;;;1.53;0.80;;;;;;;;;;1740883;80;21043;-54
2022/12/06 15:29:47;;;;;;;1.63;0.60;;;;;;;;;;1740014;81;21799;-53
2022/12/06 15:32:14;;;;;;;1.53;0.63;;;;;;;;;;1733251;81;20978;-54
2022/12/06 15:34:41;;;;;;;1.40;0.60;;;;;;;;;;1740336;80;21065;-53
2022/12/06 15:37:09;;;;;;;3.80;0.60;;;;;;;;;;1738366;80;20994;-53
2022/12/06 15:39:35;;;;;;;1.30;0.50;;;;;;;;;;1711844;82;21447;-53